createdAt,value
2018-02-08T00:00:31.211Z,37.00
2018-02-08T00:02:58.833Z,37.20
2018-02-08T00:05:26.397Z,37.17
2018-02-08T00:07:55.343Z,36.37
2018-02-08T00:10:23.034Z,36.90
2018-02-08T00:12:50.606Z,36.03
2018-02-08T00:15:18.246Z,36.17
2018-02-08T00:17:45.882Z,37.30
2018-02-08T00:20:13.462Z,36.40
2018-02-08T00:22:46.101Z,38.47
2018-02-08T00:25:13.676Z,37.47
2018-02-08T00:27:41.247Z,38.80
2018-02-08T00:30:08.878Z,37.57
2018-02-08T00:32:36.453Z,38.53
2018-02-08T00:35:04.118Z,37.93
2018-02-08T00:37:31.821Z,39.63
2018-02-08T00:39:59.405Z,39.97
2018-02-08T00:42:26.981Z,39.93
2018-02-08T00:44:54.624Z,38.70
2018-02-08T00:47:22.213Z,40.23
2018-02-08T00:49:49.789Z,38.90
2018-02-08T00:52:17.435Z,38.93
2018-02-08T00:54:45.010Z,39.50
2018-02-08T00:57:12.611Z,40.50
2018-02-08T00:59:40.229Z,41.53
2018-02-08T01:02:07.892Z,40.60
2018-02-08T01:04:35.468Z,40.43
2018-02-08T01:07:03.157Z,39.70
2018-02-08T01:09:30.749Z,39.77
2018-02-08T01:11:58.313Z,40.13
2018-02-08T01:14:26.235Z,39.90
2018-02-08T01:16:53.809Z,41.63
2018-02-08T01:19:21.389Z,39.93
2018-02-08T01:21:49.028Z,40.57
2018-02-08T01:24:16.974Z,42.70
2018-02-08T01:26:44.545Z,42.27
2018-02-08T01:29:12.164Z,42.73
2018-02-08T01:31:39.748Z,40.50
2018-02-08T01:34:07.315Z,41.60
2018-02-08T01:36:34.949Z,43.47
2018-02-08T01:39:02.526Z,41.50
2018-02-08T01:41:30.090Z,42.90
2018-02-08T01:43:57.780Z,42.13
2018-02-08T01:46:25.344Z,41.87
2018-02-08T01:48:52.921Z,42.77
2018-02-08T01:51:20.822Z,42.17
2018-02-08T01:53:48.454Z,42.67
2018-02-08T01:56:16.418Z,42.73
2018-02-08T01:58:44.056Z,42.27
2018-02-08T02:01:11.690Z,41.53
2018-02-08T02:03:39.272Z,43.10
2018-02-08T02:06:06.918Z,42.90
2018-02-08T02:08:34.489Z,42.60
2018-02-08T02:11:02.063Z,42.43
2018-02-08T02:13:29.686Z,41.37
2018-02-08T02:15:57.293Z,40.87
2018-02-08T02:18:24.889Z,42.10
2018-02-08T02:20:52.536Z,41.03
2018-02-08T02:23:20.107Z,40.33
2018-02-08T02:25:47.733Z,38.33
2018-02-08T02:28:15.674Z,40.30
2018-02-08T02:30:43.302Z,38.17
2018-02-08T02:33:10.890Z,38.27
2018-02-08T02:35:38.503Z,38.77
2018-02-08T02:38:06.083Z,38.87
2018-02-08T02:40:33.660Z,38.67
2018-02-08T02:43:01.348Z,38.67
2018-02-08T02:45:28.943Z,39.73
2018-02-08T02:47:56.521Z,37.90
2018-02-08T02:50:24.208Z,37.87
2018-02-08T02:52:52.708Z,38.03
2018-02-08T02:55:20.323Z,36.93
2018-02-08T02:57:47.968Z,37.60
2018-02-08T03:00:15.567Z,21.37
2018-02-08T03:02:43.136Z,18.20
2018-02-08T03:05:10.777Z,15.50
2018-02-08T03:07:38.337Z,15.47
2018-02-08T03:10:05.959Z,14.60
2018-02-08T03:12:34.231Z,13.77
2018-02-08T03:15:01.816Z,13.90
2018-02-08T03:17:29.396Z,11.80
2018-02-08T03:19:57.036Z,11.63
2018-02-08T03:22:24.710Z,10.90
2018-02-08T03:24:52.268Z,8.03
2018-02-08T03:27:19.883Z,7.33
2018-02-08T03:29:47.480Z,6.67
2018-02-08T03:32:15.102Z,6.90
2018-02-08T03:34:42.938Z,6.53
2018-02-08T03:37:10.531Z,5.03
2018-02-08T03:39:38.084Z,4.90
2018-02-08T03:42:05.713Z,4.53
2018-02-08T03:44:33.326Z,3.63
2018-02-08T03:47:00.905Z,3.50
2018-02-08T03:49:28.512Z,3.57
2018-02-08T03:51:56.080Z,3.50
2018-02-08T03:54:23.693Z,3.93
2018-02-08T03:56:51.347Z,4.13
2018-02-08T03:59:18.909Z,4.00
2018-02-08T04:01:46.474Z,3.73
2018-02-08T04:04:14.159Z,3.70
2018-02-08T04:06:41.733Z,4.10
2018-02-08T04:09:09.306Z,3.70
2018-02-08T04:11:36.937Z,4.27
2018-02-08T04:14:04.596Z,4.10
2018-02-08T04:16:32.173Z,3.43
2018-02-08T04:19:00.108Z,3.60
2018-02-08T04:21:27.685Z,3.37
2018-02-08T04:23:55.249Z,2.90
2018-02-08T04:26:22.916Z,3.17
2018-02-08T04:28:50.545Z,3.30
2018-02-08T04:31:18.091Z,3.13
2018-02-08T04:33:45.725Z,3.90
2018-02-08T04:36:14.095Z,4.60
2018-02-08T04:38:53.439Z,5.10
2018-02-08T04:41:32.783Z,5.80
2018-02-08T04:44:17.109Z,6.10
2018-02-08T04:47:07.531Z,6.03
2018-02-08T04:49:35.462Z,6.20
2018-02-08T04:52:03.034Z,6.17
2018-02-08T04:54:30.627Z,6.77
2018-02-08T04:56:58.216Z,7.23
2018-02-08T04:59:25.795Z,7.73
2018-02-08T05:01:53.414Z,8.33
2018-02-08T05:04:21.068Z,7.77
2018-02-08T05:06:48.702Z,7.73
2018-02-08T05:09:16.289Z,9.00
2018-02-08T05:11:43.957Z,8.93
2018-02-08T05:14:12.742Z,7.93
2018-02-08T05:16:40.345Z,7.00
2018-02-08T05:19:07.998Z,5.33
2018-02-08T05:21:35.577Z,80.83
2018-02-08T05:24:03.178Z,8.43
2018-02-08T05:26:31.636Z,9.33
2018-02-08T05:28:59.228Z,8.73
2018-02-08T05:31:26.909Z,9.17
2018-02-08T05:33:54.950Z,17.83
2018-02-08T05:36:22.557Z,17.97
2018-02-08T05:38:50.215Z,10.67
2018-02-08T05:41:17.853Z,11.07
2018-02-08T05:43:45.441Z,10.50
2018-02-08T05:46:13.062Z,11.30
2018-02-08T05:48:40.701Z,9.77
2018-02-08T05:51:08.349Z,10.00
2018-02-08T05:53:35.963Z,10.27
2018-02-08T05:56:03.661Z,11.23
2018-02-08T05:58:31.261Z,10.43
2018-02-08T06:00:58.918Z,11.40
2018-02-08T06:03:26.902Z,11.50
2018-02-08T06:05:54.552Z,13.37
2018-02-08T06:08:22.138Z,6.93
2018-02-08T06:10:49.835Z,3.30
2018-02-08T06:13:19.250Z,2.70
2018-02-08T06:15:46.920Z,3.50
2018-02-08T06:18:14.570Z,2.60
2018-02-08T06:20:42.161Z,2.60
2018-02-08T06:23:09.729Z,3.17
2018-02-08T06:25:38.387Z,3.07
2018-02-08T06:28:05.976Z,3.00
2018-02-08T06:30:33.628Z,3.30
2018-02-08T06:33:01.277Z,2.80
2018-02-08T06:35:28.877Z,3.10
2018-02-08T06:37:56.461Z,3.63
2018-02-08T06:40:24.380Z,3.00
2018-02-08T06:42:52.009Z,2.90
2018-02-08T06:45:19.625Z,3.20
2018-02-08T06:47:47.251Z,2.90
2018-02-08T06:50:14.853Z,2.83
2018-02-08T06:52:42.490Z,3.23
2018-02-08T06:55:10.121Z,3.40
2018-02-08T06:57:37.745Z,4.40
2018-02-08T07:00:05.333Z,3.90
2018-02-08T07:02:33.720Z,5.40
2018-02-08T07:05:01.378Z,4.10
2018-02-08T07:07:28.958Z,3.17
2018-02-08T07:09:56.570Z,3.40
2018-02-08T07:12:24.145Z,3.50
2018-02-08T07:14:51.702Z,3.93
2018-02-08T07:17:19.383Z,3.30
2018-02-08T07:19:46.957Z,3.40
2018-02-08T07:22:14.557Z,3.80
2018-02-08T07:24:42.205Z,3.50
2018-02-08T07:27:09.811Z,36.67
2018-02-08T07:29:38.320Z,8.87
2018-02-08T07:32:05.976Z,3.63
2018-02-08T07:34:33.642Z,3.50
2018-02-08T07:37:01.252Z,3.90
2018-02-08T07:39:28.900Z,4.30
2018-02-08T07:41:56.472Z,3.60
2018-02-08T07:44:24.054Z,3.97
2018-02-08T07:46:51.750Z,4.97
2018-02-08T07:49:19.357Z,6.03
2018-02-08T07:51:46.954Z,5.50
2018-02-08T07:54:14.817Z,6.90
2018-02-08T07:56:42.414Z,5.63
2018-02-08T07:59:10.031Z,4.80
2018-02-08T08:01:37.721Z,4.63
2018-02-08T08:04:05.317Z,4.90
2018-02-08T08:06:32.909Z,5.70
2018-02-08T08:09:01.411Z,3.77
2018-02-08T08:11:29.008Z,3.50
2018-02-08T08:13:56.711Z,4.17
2018-02-08T08:16:24.358Z,3.60
2018-02-08T08:18:52.151Z,3.50
2018-02-08T08:21:19.759Z,10.30
2018-02-08T08:23:47.487Z,4.23
2018-02-08T08:26:15.071Z,6.93
2018-02-08T08:28:42.773Z,6.13
2018-02-08T08:31:11.222Z,4.00
2018-02-08T08:33:39.397Z,13.20
2018-02-08T08:36:07.013Z,14.70
2018-02-08T08:38:35.646Z,10.00
2018-02-08T08:41:03.276Z,8.13
2018-02-08T08:43:30.938Z,9.07
2018-02-08T08:45:59.711Z,11.43
2018-02-08T08:48:27.326Z,7.43
2018-02-08T08:50:54.945Z,10.00
2018-02-08T08:53:22.626Z,14.80
2018-02-08T08:55:50.995Z,10.03
2018-02-08T08:58:18.596Z,7.47
2018-02-08T09:00:46.314Z,7.37
2018-02-08T09:03:13.897Z,6.33
2018-02-08T09:05:41.515Z,6.47
2018-02-08T09:08:09.168Z,7.10
2018-02-08T09:10:36.765Z,4.70
2018-02-08T09:13:04.402Z,9.83
2018-02-08T09:15:32.072Z,4.50
2018-02-08T09:17:59.663Z,4.83
2018-02-08T09:20:27.374Z,5.03
2018-02-08T09:22:55.014Z,4.80
2018-02-08T09:25:22.645Z,4.57
2018-02-08T09:27:50.239Z,5.60
2018-02-08T09:30:18.673Z,6.50
2018-02-08T09:32:46.269Z,5.77
2018-02-08T09:35:13.921Z,7.10
2018-02-08T09:37:42.458Z,5.23
2018-02-08T09:40:10.038Z,5.40
2018-02-08T09:42:37.638Z,5.50
2018-02-08T09:45:05.285Z,4.43
2018-02-08T09:47:32.904Z,5.17
2018-02-08T09:50:00.482Z,5.23
2018-02-08T09:52:28.140Z,5.00
2018-02-08T09:54:55.700Z,4.40
2018-02-08T09:57:23.306Z,3.93
2018-02-08T09:59:50.966Z,3.27
2018-02-08T10:02:18.557Z,3.93
2018-02-08T10:04:46.212Z,4.17
2018-02-08T10:07:13.881Z,3.67
2018-02-08T10:09:41.703Z,3.87
2018-02-08T10:12:09.302Z,4.43
2018-02-08T10:14:36.919Z,4.10
2018-02-08T10:17:05.468Z,4.20
2018-02-08T10:19:33.058Z,3.90
2018-02-08T10:22:01.117Z,3.67
2018-02-08T10:24:28.998Z,3.23
2018-02-08T10:26:56.618Z,3.70
2018-02-08T10:29:24.294Z,3.80
2018-02-08T10:31:51.863Z,3.60
2018-02-08T10:34:19.445Z,4.37
2018-02-08T10:36:47.104Z,4.10
2018-02-08T10:39:14.711Z,3.70
2018-02-08T10:41:42.406Z,3.80
2018-02-08T10:44:10.071Z,3.60
2018-02-08T10:46:37.643Z,4.23
2018-02-08T10:49:05.228Z,3.43
2018-02-08T10:51:32.842Z,5.20
2018-02-08T10:54:00.424Z,4.87
2018-02-08T10:56:28.065Z,3.63
2018-02-08T10:58:55.993Z,3.60
2018-02-08T11:01:24.386Z,3.57
2018-02-08T11:03:51.949Z,3.20
2018-02-08T11:06:19.625Z,3.40
2018-02-08T11:08:47.209Z,3.17
2018-02-08T11:11:14.822Z,4.10
2018-02-08T11:13:42.455Z,3.70
2018-02-08T11:16:10.020Z,4.03
2018-02-08T11:18:37.673Z,4.23
2018-02-08T11:21:05.323Z,3.80
2018-02-08T11:23:33.027Z,3.20
2018-02-08T11:26:00.606Z,3.80
2018-02-08T11:28:28.465Z,3.80
2018-02-08T11:30:56.076Z,3.93
2018-02-08T11:33:23.651Z,3.70
2018-02-08T11:35:51.284Z,3.93
2018-02-08T11:38:19.002Z,4.43
2018-02-08T11:40:46.608Z,3.93
2018-02-08T11:43:14.298Z,5.40
2018-02-08T11:45:41.906Z,8.77
2018-02-08T11:48:09.494Z,6.33
2018-02-08T11:50:37.140Z,7.07
2018-02-08T11:53:04.757Z,6.63
2018-02-08T11:55:32.421Z,4.00
2018-02-08T11:58:00.151Z,5.23
2018-02-08T12:00:27.746Z,7.17
2018-02-08T12:02:55.370Z,4.93
2018-02-08T12:05:23.022Z,3.73
2018-02-08T12:07:51.379Z,6.37
2018-02-08T12:10:18.961Z,5.73
2018-02-08T12:12:46.633Z,5.43
2018-02-08T12:15:14.744Z,3.43
2018-02-08T12:17:42.330Z,5.00
2018-02-08T12:20:09.979Z,7.57
2018-02-08T12:22:37.564Z,4.23
2018-02-08T12:25:05.280Z,3.00
2018-02-08T12:27:32.908Z,3.67
2018-02-08T12:30:01.376Z,3.70
2018-02-08T12:32:28.953Z,3.80
2018-02-08T12:34:56.964Z,3.73
2018-02-08T12:37:24.542Z,3.03
2018-02-08T12:39:52.144Z,3.67
2018-02-08T12:42:19.839Z,3.57
2018-02-08T12:44:47.438Z,6.33
2018-02-08T12:47:15.016Z,13.97
2018-02-08T12:49:42.656Z,5.90
2018-02-08T12:52:10.245Z,4.10
2018-02-08T12:54:37.853Z,4.40
2018-02-08T12:57:05.479Z,4.20
2018-02-08T12:59:33.139Z,3.70
2018-02-08T13:02:00.815Z,3.17
2018-02-08T13:04:28.446Z,4.50
2018-02-08T13:06:56.138Z,4.73
2018-02-08T13:09:23.717Z,3.70
2018-02-08T13:11:51.375Z,5.30
2018-02-08T13:14:18.961Z,3.77
2018-02-08T13:16:46.677Z,5.60
2018-02-08T13:19:14.369Z,4.40
2018-02-08T13:21:41.978Z,3.67
2018-02-08T13:24:09.638Z,3.90
2018-02-08T13:26:37.425Z,3.50
2018-02-08T13:29:05.011Z,3.60
2018-02-08T13:31:42.566Z,4.03
2018-02-08T13:34:10.178Z,3.70
2018-02-08T13:36:39.334Z,3.80
2018-02-08T13:39:07.070Z,3.70
2018-02-08T13:41:34.717Z,3.10
2018-02-08T13:44:02.344Z,4.53
2018-02-08T13:46:30.085Z,6.33
2018-02-08T13:48:58.252Z,4.90
2018-02-08T13:51:42.913Z,3.80
2018-02-08T13:57:36.790Z,4.00
2018-02-08T14:00:05.120Z,3.83
2018-02-08T14:02:32.762Z,3.73
2018-02-08T14:05:00.539Z,3.90
2018-02-08T14:07:28.112Z,5.17
2018-02-08T14:09:55.711Z,4.47
2018-02-08T14:12:23.360Z,4.10
2018-02-08T14:14:51.591Z,4.03
2018-02-08T14:17:19.242Z,3.30
2018-02-08T14:19:46.943Z,3.40
2018-02-08T14:22:14.621Z,3.47
2018-02-08T14:24:42.181Z,4.93
2018-02-08T14:30:04.469Z,6.40
2018-02-08T14:32:32.044Z,3.87
2018-02-08T14:34:59.687Z,4.83
2018-02-08T14:37:27.318Z,4.43
2018-02-08T14:39:55.419Z,4.40
2018-02-08T14:42:23.024Z,4.93
2018-02-08T14:44:50.746Z,4.90
2018-02-08T14:47:18.322Z,4.17
2018-02-08T14:49:45.910Z,4.43
2018-02-08T14:52:13.571Z,5.03
2018-02-08T14:54:41.147Z,4.20
2018-02-08T14:57:08.746Z,4.37
2018-02-08T14:59:36.393Z,5.23
2018-02-08T15:02:04.650Z,4.70
2018-02-08T15:04:32.239Z,7.10
2018-02-08T15:07:00.196Z,7.00
2018-02-08T15:09:27.913Z,6.93
2018-02-08T15:11:55.562Z,7.20
2018-02-08T15:14:23.293Z,6.73
2018-02-08T15:16:50.938Z,8.07
2018-02-08T15:19:18.597Z,31.17
2018-02-08T15:21:46.252Z,9.90
2018-02-08T15:24:13.836Z,8.43
2018-02-08T15:26:41.441Z,7.70
2018-02-08T15:29:09.250Z,6.93
2018-02-08T15:31:37.128Z,5.97
2018-02-08T15:34:04.706Z,9.30
2018-02-08T15:36:32.429Z,9.70
2018-02-08T15:39:00.156Z,7.93
2018-02-08T15:41:27.732Z,8.07
2018-02-08T15:43:55.344Z,6.57
2018-02-08T15:46:22.917Z,6.17
2018-02-08T15:48:50.502Z,6.20
2018-02-08T15:51:18.152Z,5.63
2018-02-08T15:53:45.786Z,4.80
2018-02-08T15:56:13.345Z,5.33
2018-02-08T15:58:40.985Z,7.10
2018-02-08T16:01:08.569Z,21.97
2018-02-08T16:03:36.219Z,3.93
2018-02-08T16:06:03.897Z,4.03
2018-02-08T16:08:31.509Z,4.37
2018-02-08T16:10:59.153Z,3.73
2018-02-08T16:13:26.846Z,4.13
2018-02-08T16:15:54.414Z,3.97
2018-02-08T16:18:22.010Z,6.10
2018-02-08T16:20:49.965Z,7.13
2018-02-08T16:23:17.546Z,8.13
2018-02-08T16:25:45.112Z,8.73
2018-02-08T16:28:12.960Z,9.20
2018-02-08T16:30:40.665Z,8.30
2018-02-08T16:33:08.307Z,8.67
2018-02-08T16:35:36.000Z,8.57
2018-02-08T16:38:03.603Z,8.20
2018-02-08T16:40:31.208Z,9.23
2018-02-08T16:42:58.907Z,11.23
2018-02-08T16:45:26.537Z,11.13
2018-02-08T16:47:54.113Z,11.60
2018-02-08T16:50:21.818Z,10.63
2018-02-08T16:52:49.445Z,8.90
2018-02-08T16:55:17.021Z,9.17
2018-02-08T16:57:44.634Z,8.40
2018-02-08T17:00:12.233Z,13.43
2018-02-08T17:02:39.816Z,18.93
2018-02-08T17:05:07.807Z,21.43
2018-02-08T17:07:35.386Z,20.67
2018-02-08T17:10:03.015Z,26.20
2018-02-08T17:12:30.681Z,28.07
2018-02-08T17:14:58.253Z,24.83
2018-02-08T17:17:25.833Z,25.03
2018-02-08T17:19:53.465Z,26.17
2018-02-08T17:22:21.099Z,21.27
2018-02-08T17:24:48.699Z,18.67
2018-02-08T17:27:16.393Z,21.93
2018-02-08T17:29:44.071Z,20.80
2018-02-08T17:32:11.755Z,19.17
2018-02-08T17:34:39.402Z,18.23
2018-02-08T17:37:07.176Z,18.60
2018-02-08T17:39:34.830Z,11.40
2018-02-08T17:42:02.781Z,9.27
2018-02-08T17:44:31.113Z,8.80
2018-02-08T17:46:58.757Z,6.90
2018-02-08T17:49:26.389Z,6.50
2018-02-08T17:51:53.963Z,5.40
2018-02-08T17:54:21.539Z,5.60
2018-02-08T17:56:49.194Z,6.30
2018-02-08T17:59:17.744Z,5.73
2018-02-08T18:01:45.348Z,5.53
2018-02-08T18:04:12.981Z,5.83
2018-02-08T18:06:40.648Z,4.90
2018-02-08T18:09:08.241Z,5.40
2018-02-08T18:11:35.876Z,6.73
2018-02-08T18:14:03.534Z,7.50
2018-02-08T18:16:32.104Z,14.33
2018-02-08T18:18:59.775Z,10.53
2018-02-08T18:21:27.425Z,6.43
2018-02-08T18:23:55.003Z,4.03
2018-02-08T18:26:22.654Z,5.30
2018-02-08T18:28:50.298Z,6.60
2018-02-08T18:31:17.870Z,5.83
2018-02-08T18:33:45.736Z,4.70
2018-02-08T18:36:13.374Z,5.83
2018-02-08T18:38:41.053Z,6.53
2018-02-08T18:41:08.741Z,9.70
2018-02-08T18:43:36.316Z,14.90
2018-02-08T18:46:03.951Z,15.87
2018-02-08T18:48:31.573Z,14.93
2018-02-08T18:50:59.229Z,13.27
2018-02-08T18:53:27.367Z,14.33
2018-02-08T18:55:54.987Z,18.93
2018-02-08T18:58:22.557Z,15.57
2018-02-08T19:00:50.158Z,15.30
2018-02-08T19:03:17.815Z,15.20
2018-02-08T19:05:45.384Z,15.80
2018-02-08T19:08:12.986Z,13.80
2018-02-08T19:10:40.820Z,20.60
2018-02-08T19:13:08.987Z,14.90
2018-02-08T19:15:36.649Z,18.53
2018-02-08T19:18:04.307Z,15.87
2018-02-08T19:20:31.898Z,19.70
2018-02-08T19:22:59.494Z,39.37
2018-02-08T19:25:27.213Z,57.33
2018-02-08T19:27:55.030Z,26.90
2018-02-08T19:30:22.615Z,42.33
2018-02-08T19:32:50.548Z,42.57
2018-02-08T19:35:18.862Z,34.70
2018-02-08T19:37:46.502Z,20.97
2018-02-08T19:40:14.157Z,19.60
2018-02-08T19:42:46.306Z,25.97
2018-02-08T19:45:13.970Z,24.27
2018-02-08T19:47:41.687Z,28.23
2018-02-08T19:50:09.867Z,35.67
2018-02-08T19:52:37.715Z,27.57
2018-02-08T19:55:05.340Z,24.00
2018-02-08T19:57:32.918Z,22.77
2018-02-08T20:00:00.581Z,19.43
2018-02-08T20:02:28.756Z,18.10
2018-02-08T20:04:56.427Z,19.90
2018-02-08T20:07:24.056Z,18.73
2018-02-08T20:09:51.627Z,18.87
2018-02-08T20:12:19.232Z,17.27
2018-02-08T20:14:48.729Z,17.30
2018-02-08T20:17:16.344Z,14.77
2018-02-08T20:19:43.947Z,15.40
2018-02-08T20:22:11.621Z,14.50
2018-02-08T20:24:39.209Z,13.87
2018-02-08T20:27:06.802Z,13.57
2018-02-08T20:29:34.508Z,14.47
2018-02-08T20:32:02.109Z,14.67
2018-02-08T20:34:29.684Z,12.67
2018-02-08T20:37:01.852Z,12.47
2018-02-08T20:39:29.475Z,11.53
2018-02-08T20:41:57.061Z,11.57
2018-02-08T20:44:24.707Z,12.70
2018-02-08T20:46:52.276Z,13.20
2018-02-08T20:49:19.860Z,13.03
2018-02-08T20:51:47.502Z,11.70
2018-02-08T20:54:15.829Z,11.40
2018-02-08T20:56:43.416Z,10.80
2018-02-08T20:59:11.040Z,12.20
2018-02-08T21:01:38.793Z,9.80
2018-02-08T21:04:06.381Z,10.10
2018-02-08T21:06:34.008Z,9.80
2018-02-08T21:09:01.569Z,12.40
2018-02-08T21:11:29.187Z,11.63
2018-02-08T21:13:57.116Z,10.87
2018-02-08T21:16:24.705Z,10.03
2018-02-08T21:18:52.302Z,10.43
2018-02-08T21:21:19.970Z,11.40
2018-02-08T21:23:47.575Z,10.40
2018-02-08T21:26:15.323Z,9.77
2018-02-08T21:28:42.969Z,11.00
2018-02-08T21:31:10.636Z,10.43
2018-02-08T21:33:38.219Z,9.97
2018-02-08T21:36:05.866Z,10.40
2018-02-08T21:38:33.682Z,9.10
2018-02-08T21:41:01.265Z,8.90
2018-02-08T21:43:28.892Z,8.63
2018-02-08T21:45:56.521Z,9.33
2018-02-08T21:48:24.178Z,8.70
2018-02-08T21:50:51.870Z,8.10
2018-02-08T21:53:19.432Z,7.40
2018-02-08T21:55:47.019Z,8.17
2018-02-08T21:58:14.664Z,7.33
2018-02-08T22:00:42.316Z,6.47
2018-02-08T22:03:09.957Z,6.97
2018-02-08T22:05:37.668Z,6.97
2018-02-08T22:08:05.246Z,7.03
2018-02-08T22:10:32.965Z,7.50
2018-02-08T22:13:02.052Z,7.40
2018-02-08T22:15:29.639Z,7.47
2018-02-08T22:17:57.228Z,7.37
2018-02-08T22:20:25.363Z,7.60
2018-02-08T22:22:52.922Z,8.30
2018-02-08T22:25:20.481Z,8.17
2018-02-08T22:27:48.132Z,9.87
2018-02-08T22:30:15.781Z,7.47
2018-02-08T22:32:43.377Z,8.00
2018-02-08T22:35:11.306Z,9.30
2018-02-08T22:37:38.918Z,9.73
2018-02-08T22:40:06.644Z,10.73
2018-02-08T22:42:34.299Z,14.33
2018-02-08T22:45:01.908Z,14.87
2018-02-08T22:47:29.497Z,12.70
2018-02-08T22:49:57.209Z,13.20
2018-02-08T22:52:24.788Z,11.40
2018-02-08T22:54:52.389Z,11.20
2018-02-08T22:57:20.021Z,11.73
2018-02-08T22:59:47.678Z,11.37
2018-02-08T23:02:15.284Z,10.57
2018-02-08T23:04:42.905Z,9.73
2018-02-08T23:07:10.481Z,8.53
2018-02-08T23:09:38.051Z,7.23
2018-02-08T23:12:06.021Z,8.80
2018-02-08T23:14:33.591Z,10.17
2018-02-08T23:17:01.166Z,10.17
2018-02-08T23:19:28.797Z,9.73
2018-02-08T23:21:56.390Z,10.00
2018-02-08T23:24:23.968Z,10.27
2018-02-08T23:26:51.618Z,8.87
2018-02-08T23:29:19.196Z,8.40
2018-02-08T23:31:46.827Z,8.37
2018-02-08T23:34:14.475Z,8.00
2018-02-08T23:36:42.146Z,9.03
2018-02-08T23:39:09.736Z,10.30
2018-02-08T23:41:37.463Z,12.20
2018-02-08T23:44:05.035Z,11.83
2018-02-08T23:46:32.618Z,12.47
2018-02-08T23:49:02.755Z,12.67
2018-02-08T23:51:30.401Z,12.73
2018-02-08T23:53:57.998Z,13.50
2018-02-08T23:56:26.185Z,13.10
2018-02-08T23:58:53.762Z,12.33
